Time;durP1;ratioP1;P1;durP2;ratioP2;P2;SDS_P1;SDS_P2;PMS_P1;PMS_P2;Temp;Humidity;BMP_temperature;BMP_pressure;BME280_temperature;BME280_humidity;BME280_pressure;Samples;Min_cycle;Max_cycle;Signal;HPM_P1;HPM_P2
2022/08/04 00:04:19;;;;;;;;;;;;;;;;;;5037378;28;19913;-93
2022/08/04 00:09:48;;;;;;;;;;;;;;;;;;5031777;28;19913;-91
2022/08/04 00:12:21;;;;;;;;;;;;;;;;;;5007830;28;19934;-91
2022/08/04 00:14:54;;;;;;;;;;;;;;;;;;5009775;28;19982;-90
2022/08/04 00:17:42;;;;;;;;;;;;;;;;;;5012179;28;19925;-90
2022/08/04 00:21:06;;;;;;;;;;;;;;;;;;4981985;28;19912;-92
2022/08/04 00:27:09;;;;;;;;;;;;;;;;;;;;;
2022/08/04 00:32:35;;;;;;;;;;;;;;;;;;4922245;28;20558;-92
2022/08/04 00:35:32;;;;;;;;;;;;;;;;;;4974713;28;20051;-93
2022/08/04 00:38:04;;;;;;;;;;;;;;;;;;4917808;29;19957;-91
2022/08/04 00:40:54;;;;;;;;;;;;;;;;;;;;;
2022/08/04 00:43:43;;;;;;;;;;;;;;;;;;4938067;28;20321;-94
2022/08/04 00:46:44;;;;;;;;;;;;;;;;;;4924799;28;19925;-93
2022/08/04 00:56:05;;;;;;;;;;;;;;;;;;4885099;29;19953;-94
2022/08/04 00:59:01;;;;;;;;;;;;;;;;;;4935689;28;20377;-92
2022/08/04 01:15:27;;;;;;;;;;;;;;;;;;4948509;23;20503;-66
2022/08/04 01:17:55;;;;;;;;;;;;;;;;;;5017271;28;20487;-66
2022/08/04 01:20:21;;;;;;;;;;;;;;;;;;5010580;28;19921;-67
2022/08/04 01:22:46;;;;;;;;;;;;;;;;;;5017331;28;19925;-67
2022/08/04 01:25:12;;;;;;;;;;;;;;;;;;5014304;28;19917;-66
2022/08/04 01:27:40;;;;;;;;;;;;;;;;;;4999706;28;19921;-66
2022/08/04 01:30:08;;;;;;;;;;;;;;;;;;5015319;28;19921;-66
2022/08/04 01:35:30;;;;;;;;;;;;;;;;;;5015023;28;20291;-66
2022/08/04 01:37:57;;;;;;;;;;;;;;;;;;5011777;28;19917;-65
2022/08/04 01:40:22;;;;;;;;;;;;;;;;;;5017825;28;20059;-66
2022/08/04 01:42:48;;;;;;;;;;;;;;;;;;5001775;28;20353;-66
2022/08/04 01:45:13;;;;;;;;;;;;;;;;;;4995822;28;20357;-67
2022/08/04 01:47:39;;;;;;;;;;;;;;;;;;5013741;28;19947;-67
2022/08/04 01:50:04;;;;;;;;;;;;;;;;;;5013068;28;20315;-66
2022/08/04 01:52:32;;;;;;;;;;;;;;;;;;4995094;28;19925;-67
2022/08/04 01:55:00;;;;;;;;;;;;;;;;;;5012957;28;20230;-66
2022/08/04 01:57:25;;;;;;;;;;;;;;;;;;5013401;28;20520;-66
2022/08/04 01:59:50;;;;;;;;;;;;;;;;;;5012548;28;19925;-66
2022/08/04 02:02:16;;;;;;;;;;;;;;;;;;4996423;28;20298;-67
2022/08/04 02:04:43;;;;;;;;;;;;;;;;;;5013551;28;19916;-67
2022/08/04 02:07:09;;;;;;;;;;;;;;;;;;4999559;28;20288;-66
2022/08/04 02:09:37;;;;;;;;;;;;;;;;;;5013232;28;20605;-66
2022/08/04 02:12:05;;;;;;;;;;;;;;;;;;5014404;28;19921;-64
2022/08/04 02:14:40;;;;;;;;;;;;;;;;;;4999997;28;20018;-66
2022/08/04 02:17:05;;;;;;;;;;;;;;;;;;5013365;28;20048;-65
2022/08/04 02:19:30;;;;;;;;;;;;;;;;;;5015369;28;19964;-66
2022/08/04 02:21:55;;;;;;;;;;;;;;;;;;5016628;28;19988;-67
2022/08/04 02:24:21;;;;;;;;;;;;;;;;;;5014666;28;19975;-67
2022/08/04 02:29:38;;;;;;;;;;;;;;;;;;5013121;28;19921;-66
2022/08/04 02:32:06;;;;;;;;;;;;;;;;;;5012834;28;19928;-66
2022/08/04 02:34:31;;;;;;;;;;;;;;;;;;5016049;28;19948;-66
2022/08/04 02:36:59;;;;;;;;;;;;;;;;;;5011618;28;19924;-66
2022/08/04 02:39:24;;;;;;;;;;;;;;;;;;5014181;28;19925;-66
2022/08/04 02:41:50;;;;;;;;;;;;;;;;;;5013285;28;19947;-64
2022/08/04 02:44:19;;;;;;;;;;;;;;;;;;5014803;28;19916;-64
2022/08/04 02:46:45;;;;;;;;;;;;;;;;;;5016192;28;19921;-67
2022/08/04 02:49:12;;;;;;;;;;;;;;;;;;5000921;28;20167;-66
2022/08/04 02:51:38;;;;;;;;;;;;;;;;;;5000321;28;20012;-66
2022/08/04 02:54:03;;;;;;;;;;;;;;;;;;5010848;28;20004;-65
2022/08/04 02:56:29;;;;;;;;;;;;;;;;;;5012251;28;19925;-66
2022/08/04 02:58:54;;;;;;;;;;;;;;;;;;5013110;28;19921;-66
2022/08/04 03:01:20;;;;;;;;;;;;;;;;;;5014250;28;19925;-66
2022/08/04 03:03:46;;;;;;;;;;;;;;;;;;5013477;28;19928;-66
2022/08/04 03:06:12;;;;;;;;;;;;;;;;;;5013081;28;20303;-67
2022/08/04 03:08:37;;;;;;;;;;;;;;;;;;5016534;28;20655;-67
2022/08/04 03:11:02;;;;;;;;;;;;;;;;;;5016775;28;19916;-67
2022/08/04 03:13:28;;;;;;;;;;;;;;;;;;5016595;28;20368;-66
2022/08/04 03:15:54;;;;;;;;;;;;;;;;;;5017326;28;19925;-67
2022/08/04 03:18:19;;;;;;;;;;;;;;;;;;5019148;28;20100;-67
2022/08/04 03:20:57;;;;;;;;;;;;;;;;;;5021088;28;20668;-68
2022/08/04 03:23:22;;;;;;;;;;;;;;;;;;5013946;28;20315;-68
2022/08/04 03:25:47;;;;;;;;;;;;;;;;;;5019581;28;19975;-67
2022/08/04 03:28:13;;;;;;;;;;;;;;;;;;5014895;28;19923;-66
2022/08/04 03:30:38;;;;;;;;;;;;;;;;;;5015722;28;19925;-67
2022/08/04 03:33:03;;;;;;;;;;;;;;;;;;5018936;28;19921;-67
2022/08/04 03:35:29;;;;;;;;;;;;;;;;;;5016243;28;19983;-67
2022/08/04 03:40:49;;;;;;;;;;;;;;;;;;5016932;28;19921;-66
2022/08/04 03:43:17;;;;;;;;;;;;;;;;;;5016577;28;20387;-67
2022/08/04 03:45:43;;;;;;;;;;;;;;;;;;5016438;28;19971;-67
2022/08/04 03:48:08;;;;;;;;;;;;;;;;;;5017249;28;19920;-67
2022/08/04 03:50:33;;;;;;;;;;;;;;;;;;5020091;28;20272;-67
2022/08/04 03:53:08;;;;;;;;;;;;;;;;;;5018775;28;19956;-67
2022/08/04 03:55:33;;;;;;;;;;;;;;;;;;5018336;28;20244;-67
2022/08/04 03:57:58;;;;;;;;;;;;;;;;;;4999779;28;19917;-68
2022/08/04 04:00:24;;;;;;;;;;;;;;;;;;5016178;28;19920;-68
2022/08/04 04:02:49;;;;;;;;;;;;;;;;;;5017166;28;19929;-66
2022/08/04 04:05:15;;;;;;;;;;;;;;;;;;5017035;28;20162;-67
2022/08/04 04:07:41;;;;;;;;;;;;;;;;;;5017211;28;19982;-67
2022/08/04 04:10:07;;;;;;;;;;;;;;;;;;5017080;28;20773;-67
2022/08/04 04:12:32;;;;;;;;;;;;;;;;;;5014401;28;20079;-67
2022/08/04 04:14:57;;;;;;;;;;;;;;;;;;5015431;28;20423;-66
2022/08/04 04:20:39;;;;;;;;;;;;;;;;;;5016844;28;19979;-68
2022/08/04 04:23:05;;;;;;;;;;;;;;;;;;5011941;28;19934;-67
2022/08/04 04:25:30;;;;;;;;;;;;;;;;;;5016720;28;19921;-67
2022/08/04 04:27:58;;;;;;;;;;;;;;;;;;5017369;28;20273;-67
2022/08/04 04:30:23;;;;;;;;;;;;;;;;;;4999897;28;20464;-67
2022/08/04 04:33:04;;;;;;;;;;;;;;;;;;4997898;28;19921;-67
2022/08/04 04:35:29;;;;;;;;;;;;;;;;;;5019169;28;20015;-67
2022/08/04 04:37:54;;;;;;;;;;;;;;;;;;4997557;28;19920;-68
2022/08/04 04:40:20;;;;;;;;;;;;;;;;;;5016415;28;20369;-67
2022/08/04 04:42:45;;;;;;;;;;;;;;;;;;5013307;28;19928;-68
2022/08/04 04:48:05;;;;;;;;;;;;;;;;;;5012733;28;19979;-68
2022/08/04 04:50:31;;;;;;;;;;;;;;;;;;5017098;28;21550;-67
2022/08/04 04:52:56;;;;;;;;;;;;;;;;;;5001952;28;19930;-67
2022/08/04 04:55:21;;;;;;;;;;;;;;;;;;5011187;28;20403;-67
2022/08/04 04:57:47;;;;;;;;;;;;;;;;;;5015100;28;20395;-67
2022/08/04 05:00:12;;;;;;;;;;;;;;;;;;5014387;28;20364;-67
2022/08/04 05:02:38;;;;;;;;;;;;;;;;;;5013251;28;20396;-68
2022/08/04 05:05:04;;;;;;;;;;;;;;;;;;5015107;28;19928;-67
2022/08/04 05:07:32;;;;;;;;;;;;;;;;;;4996656;28;19925;-68
2022/08/04 05:10:06;;;;;;;;;;;;;;;;;;5012777;28;19921;-67
2022/08/04 05:12:32;;;;;;;;;;;;;;;;;;5016595;28;20420;-67
2022/08/04 05:14:57;;;;;;;;;;;;;;;;;;5016712;28;19968;-68
2022/08/04 05:20:16;;;;;;;;;;;;;;;;;;5016758;28;19989;-68
2022/08/04 05:22:41;;;;;;;;;;;;;;;;;;5015504;28;20063;-68
2022/08/04 05:25:07;;;;;;;;;;;;;;;;;;5015246;28;19971;-68
2022/08/04 05:27:33;;;;;;;;;;;;;;;;;;5015644;28;19924;-67
2022/08/04 05:30:02;;;;;;;;;;;;;;;;;;5015862;28;19925;-67
2022/08/04 05:35:46;;;;;;;;;;;;;;;;;;5016200;28;19979;-68
2022/08/04 05:38:11;;;;;;;;;;;;;;;;;;5015166;28;19971;-67
2022/08/04 05:40:38;;;;;;;;;;;;;;;;;;5013726;28;20004;-68
2022/08/04 05:43:12;;;;;;;;;;;;;;;;;;5013758;28;19955;-68
2022/08/04 05:45:38;;;;;;;;;;;;;;;;;;5014361;28;19932;-68
2022/08/04 05:48:03;;;;;;;;;;;;;;;;;;5011340;28;19921;-68
2022/08/04 05:50:33;;;;;;;;;;;;;;;;;;5015873;28;19971;-68
2022/08/04 05:53:08;;;;;;;;;;;;;;;;;;5014107;28;19928;-69
2022/08/04 06:02:08;;;;;;;;;;;;;;;;;;5013104;28;19955;-68
2022/08/04 06:04:34;;;;;;;;;;;;;;;;;;5017616;28;20016;-69
2022/08/04 06:06:59;;;;;;;;;;;;;;;;;;5018111;28;20401;-69
2022/08/04 06:09:25;;;;;;;;;;;;;;;;;;5032228;28;19928;-67
2022/08/04 06:11:51;;;;;;;;;;;;;;;;;;5014441;28;19971;-67
2022/08/04 06:14:17;;;;;;;;;;;;;;;;;;5015666;28;20652;-67
2022/08/04 06:19:59;;;;;;;;;;;;;;;;;;5017106;28;19927;-68
2022/08/04 06:22:25;;;;;;;;;;;;;;;;;;5018728;28;19927;-67
2022/08/04 06:24:51;;;;;;;;;;;;;;;;;;5012588;28;19921;-68
2022/08/04 06:30:33;;;;;;;;;;;;;;;;;;5015196;28;19927;-67
2022/08/04 06:36:16;;;;;;;;;;;;;;;;;;5016617;28;20041;-68
2022/08/04 06:38:41;;;;;;;;;;;;;;;;;;5015975;28;21896;-68
2022/08/04 06:41:09;;;;;;;;;;;;;;;;;;5016564;28;19952;-67
2022/08/04 06:43:37;;;;;;;;;;;;;;;;;;5017108;28;20004;-68
2022/08/04 06:46:03;;;;;;;;;;;;;;;;;;5018904;28;19924;-67
2022/08/04 06:48:28;;;;;;;;;;;;;;;;;;5019274;28;19927;-68
2022/08/04 06:51:03;;;;;;;;;;;;;;;;;;5002034;28;19921;-68
2022/08/04 06:56:44;;;;;;;;;;;;;;;;;;5019138;28;20922;-68
2022/08/04 07:02:26;;;;;;;;;;;;;;;;;;5017400;28;19967;-69
2022/08/04 07:04:52;;;;;;;;;;;;;;;;;;5022479;28;19921;-68
2022/08/04 07:07:18;;;;;;;;;;;;;;;;;;5020147;28;19987;-69
2022/08/04 07:09:43;;;;;;;;;;;;;;;;;;5021704;28;19920;-69
2022/08/04 07:12:13;;;;;;;;;;;;;;;;;;5019709;28;19917;-68
2022/08/04 07:14:41;;;;;;;;;;;;;;;;;;5017434;28;19929;-68
2022/08/04 07:17:09;;;;;;;;;;;;;;;;;;5002113;28;20008;-68
2022/08/04 07:19:35;;;;;;;;;;;;;;;;;;5017018;28;19928;-67
2022/08/04 07:22:00;;;;;;;;;;;;;;;;;;5020147;28;19925;-69
2022/08/04 07:24:25;;;;;;;;;;;;;;;;;;5021889;28;19932;-69
2022/08/04 07:26:51;;;;;;;;;;;;;;;;;;5017845;28;19921;-68
2022/08/04 07:29:19;;;;;;;;;;;;;;;;;;5003961;28;19982;-68
2022/08/04 07:31:44;;;;;;;;;;;;;;;;;;5019305;28;19922;-68
2022/08/04 07:34:10;;;;;;;;;;;;;;;;;;5017121;28;19921;-68
2022/08/04 07:36:35;;;;;;;;;;;;;;;;;;5017143;28;20012;-68
2022/08/04 07:39:00;;;;;;;;;;;;;;;;;;5018922;28;20197;-69
2022/08/04 07:41:26;;;;;;;;;;;;;;;;;;5020707;28;20387;-67
2022/08/04 07:46:44;;;;;;;;;;;;;;;;;;5018476;28;19921;-69
2022/08/04 07:49:10;;;;;;;;;;;;;;;;;;5018956;28;19923;-71
2022/08/04 07:51:38;;;;;;;;;;;;;;;;;;5006073;28;19921;-71
2022/08/04 07:54:06;;;;;;;;;;;;;;;;;;5020530;28;19978;-71
2022/08/04 07:56:31;;;;;;;;;;;;;;;;;;5020236;28;19995;-67
2022/08/04 08:02:16;;;;;;;;;;;;;;;;;;5018352;28;19979;-70
2022/08/04 08:04:44;;;;;;;;;;;;;;;;;;5004683;28;20371;-69
2022/08/04 08:10:26;;;;;;;;;;;;;;;;;;5019868;28;20675;-68
2022/08/04 08:12:53;;;;;;;;;;;;;;;;;;5022326;28;20375;-69
2022/08/04 08:21:22;;;;;;;;;;;;;;;;;;5019082;28;19923;-69
2022/08/04 08:23:49;;;;;;;;;;;;;;;;;;5002046;28;19925;-66
2022/08/04 08:26:19;;;;;;;;;;;;;;;;;;5018194;28;20055;-69
2022/08/04 08:28:45;;;;;;;;;;;;;;;;;;5017016;28;19924;-69
2022/08/04 08:31:11;;;;;;;;;;;;;;;;;;5017279;28;19970;-70
2022/08/04 08:36:53;;;;;;;;;;;;;;;;;;5018859;28;20560;-68
2022/08/04 08:39:22;;;;;;;;;;;;;;;;;;5016871;28;19963;-69
2022/08/04 08:41:48;;;;;;;;;;;;;;;;;;5020196;28;19920;-67
2022/08/04 08:44:15;;;;;;;;;;;;;;;;;;5021524;28;19921;-69
2022/08/04 08:46:41;;;;;;;;;;;;;;;;;;5020227;28;19963;-69
2022/08/04 08:52:26;;;;;;;;;;;;;;;;;;5018188;28;19932;-68
2022/08/04 09:01:25;;;;;;;;;;;;;;;;;;5017720;28;20042;-68
2022/08/04 09:07:15;;;;;;;;;;;;;;;;;;5018167;28;19924;-68
2022/08/04 09:09:45;;;;;;;;;;;;;;;;;;5014328;28;20775;-68
2022/08/04 09:12:13;;;;;;;;;;;;;;;;;;5018341;28;20019;-68
2022/08/04 09:14:41;;;;;;;;;;;;;;;;;;5016101;28;19986;-68
2022/08/04 09:17:06;;;;;;;;;;;;;;;;;;4997752;28;19955;-68
2022/08/04 09:19:34;;;;;;;;;;;;;;;;;;5017635;28;20007;-68
2022/08/04 09:21:59;;;;;;;;;;;;;;;;;;5019058;28;20307;-69
2022/08/04 09:24:24;;;;;;;;;;;;;;;;;;5016756;28;19991;-68
2022/08/04 09:27:07;;;;;;;;;;;;;;;;;;5017101;28;20350;-69
2022/08/04 09:32:24;;;;;;;;;;;;;;;;;;5017616;28;19921;-69
2022/08/04 09:41:23;;;;;;;;;;;;;;;;;;5017570;28;19923;-67
2022/08/04 09:43:51;;;;;;;;;;;;;;;;;;5019427;28;20683;-70
2022/08/04 09:46:16;;;;;;;;;;;;;;;;;;5016495;28;19917;-69
2022/08/04 09:48:42;;;;;;;;;;;;;;;;;;5018935;28;20560;-70
2022/08/04 09:51:14;;;;;;;;;;;;;;;;;;5001320;28;19927;-69
2022/08/04 10:03:33;;;;;;;;;;;;;;;;;;5018392;28;19932;-69
2022/08/04 10:08:49;;;;;;;;;;;;;;;;;;5016886;28;19920;-68
2022/08/04 10:11:16;;;;;;;;;;;;;;;;;;5017058;28;19921;-68
2022/08/04 10:13:44;;;;;;;;;;;;;;;;;;5015292;28;20395;-71
2022/08/04 10:16:09;;;;;;;;;;;;;;;;;;5016487;28;19928;-68
2022/08/04 10:18:34;;;;;;;;;;;;;;;;;;5017229;28;20627;-67
2022/08/04 10:21:00;;;;;;;;;;;;;;;;;;5017927;28;19917;-70
2022/08/04 10:23:28;;;;;;;;;;;;;;;;;;5015795;28;19925;-68
2022/08/04 10:32:27;;;;;;;;;;;;;;;;;;5017721;28;20428;-69
2022/08/04 10:34:53;;;;;;;;;;;;;;;;;;5018390;28;19921;-67
2022/08/04 10:37:39;;;;;;;;;;;;;;;;;;5014120;28;19921;-69
2022/08/04 10:42:49;;;;;;;;;;;;;;;;;;5016293;28;19972;-67
2022/08/04 10:45:14;;;;;;;;;;;;;;;;;;5018239;28;20433;-68
2022/08/04 10:47:57;;;;;;;;;;;;;;;;;;5013762;28;20011;-67
2022/08/04 10:50:23;;;;;;;;;;;;;;;;;;5014844;28;19925;-70
2022/08/04 10:52:49;;;;;;;;;;;;;;;;;;5017967;28;19924;-68
2022/08/04 10:55:14;;;;;;;;;;;;;;;;;;5015622;28;19977;-65
2022/08/04 10:57:40;;;;;;;;;;;;;;;;;;5016985;28;19939;-68
2022/08/04 11:00:06;;;;;;;;;;;;;;;;;;5014759;28;19928;-68
2022/08/04 11:02:32;;;;;;;;;;;;;;;;;;5014670;28;19933;-67
2022/08/04 11:04:57;;;;;;;;;;;;;;;;;;5004491;28;19917;-67
2022/08/04 11:07:22;;;;;;;;;;;;;;;;;;5001773;28;19924;-67
2022/08/04 11:09:51;;;;;;;;;;;;;;;;;;5016167;28;19925;-69
2022/08/04 11:12:20;;;;;;;;;;;;;;;;;;5015676;28;20237;-68
2022/08/04 11:18:04;;;;;;;;;;;;;;;;;;5017709;28;20397;-65
2022/08/04 11:20:30;;;;;;;;;;;;;;;;;;5016139;28;20074;-68
2022/08/04 11:22:55;;;;;;;;;;;;;;;;;;5016716;28;20047;-68
2022/08/04 11:25:21;;;;;;;;;;;;;;;;;;4997217;28;19925;-68
2022/08/04 11:28:08;;;;;;;;;;;;;;;;;;5017190;28;19917;-67
2022/08/04 11:30:33;;;;;;;;;;;;;;;;;;5020545;28;21021;-67
2022/08/04 11:32:59;;;;;;;;;;;;;;;;;;5017502;28;19920;-68
2022/08/04 11:35:24;;;;;;;;;;;;;;;;;;5023694;28;19967;-67
2022/08/04 11:37:50;;;;;;;;;;;;;;;;;;5017256;28;19931;-69
2022/08/04 11:40:16;;;;;;;;;;;;;;;;;;5021487;28;21235;-67
2022/08/04 11:42:41;;;;;;;;;;;;;;;;;;5019341;28;20027;-69
2022/08/04 11:45:09;;;;;;;;;;;;;;;;;;5017817;28;19973;-68
2022/08/04 11:47:37;;;;;;;;;;;;;;;;;;5019012;28;19952;-71
2022/08/04 11:52:58;;;;;;;;;;;;;;;;;;5019786;28;20300;-68
2022/08/04 11:55:23;;;;;;;;;;;;;;;;;;5019424;28;20396;-66
2022/08/04 11:57:51;;;;;;;;;;;;;;;;;;5021247;28;19921;-68
2022/08/04 12:03:10;;;;;;;;;;;;;;;;;;5020431;28;20326;-69
2022/08/04 12:05:36;;;;;;;;;;;;;;;;;;5018589;28;19968;-69
2022/08/04 12:08:06;;;;;;;;;;;;;;;;;;5019206;28;20007;-67
2022/08/04 12:10:37;;;;;;;;;;;;;;;;;;5016104;28;21009;-65
2022/08/04 12:13:10;;;;;;;;;;;;;;;;;;5019530;28;19931;-65
2022/08/04 12:15:35;;;;;;;;;;;;;;;;;;4999999;28;20288;-69
2022/08/04 12:18:03;;;;;;;;;;;;;;;;;;5018196;28;19925;-68
2022/08/04 12:23:46;;;;;;;;;;;;;;;;;;5019573;28;19931;-69
2022/08/04 12:26:14;;;;;;;;;;;;;;;;;;5018018;28;19922;-69
2022/08/04 12:28:42;;;;;;;;;;;;;;;;;;5008447;28;20395;-69
2022/08/04 12:31:09;;;;;;;;;;;;;;;;;;5017604;28;19928;-69
2022/08/04 12:36:22;;;;;;;;;;;;;;;;;;5018579;28;19994;-69
2022/08/04 12:38:48;;;;;;;;;;;;;;;;;;5017682;28;20846;-68
2022/08/04 12:41:19;;;;;;;;;;;;;;;;;;5000127;28;19921;-66
2022/08/04 12:43:49;;;;;;;;;;;;;;;;;;5016761;28;19920;-67
2022/08/04 12:46:14;;;;;;;;;;;;;;;;;;5020173;28;19916;-67
2022/08/04 12:51:58;;;;;;;;;;;;;;;;;;5016577;28;19928;-69
2022/08/04 12:57:43;;;;;;;;;;;;;;;;;;5016346;28;19923;-68
2022/08/04 13:00:11;;;;;;;;;;;;;;;;;;5017917;28;19927;-68
2022/08/04 13:02:36;;;;;;;;;;;;;;;;;;5001586;28;19929;-68
2022/08/04 13:05:02;;;;;;;;;;;;;;;;;;5017456;28;19960;-67
2022/08/04 13:10:44;;;;;;;;;;;;;;;;;;5018005;28;19940;-67
2022/08/04 13:13:19;;;;;;;;;;;;;;;;;;5016231;28;19964;-67
2022/08/04 13:15:44;;;;;;;;;;;;;;;;;;5019398;28;20060;-67
2022/08/04 13:18:11;;;;;;;;;;;;;;;;;;5017929;28;19921;-68
2022/08/04 13:20:38;;;;;;;;;;;;;;;;;;4999437;28;20007;-67
2022/08/04 13:23:04;;;;;;;;;;;;;;;;;;5016778;28;19936;-68
2022/08/04 13:25:30;;;;;;;;;;;;;;;;;;5016357;28;19923;-70
2022/08/04 13:31:14;;;;;;;;;;;;;;;;;;5015058;28;19951;-67
2022/08/04 13:33:40;;;;;;;;;;;;;;;;;;5017808;28;20043;-67
2022/08/04 13:36:05;;;;;;;;;;;;;;;;;;5016896;28;19917;-67
2022/08/04 13:41:50;;;;;;;;;;;;;;;;;;5016234;28;19956;-65
2022/08/04 13:44:16;;;;;;;;;;;;;;;;;;5003159;28;19917;-68
2022/08/04 13:49:59;;;;;;;;;;;;;;;;;;5017110;28;19929;-62
2022/08/04 13:52:24;;;;;;;;;;;;;;;;;;4995038;28;19916;-67
2022/08/04 13:54:50;;;;;;;;;;;;;;;;;;5017822;28;19981;-67
2022/08/04 14:00:01;;;;;;;;;;;;;;;;;;5015434;28;19924;-66
2022/08/04 14:02:29;;;;;;;;;;;;;;;;;;5015366;28;19936;-66
2022/08/04 14:05:00;;;;;;;;;;;;;;;;;;5014462;28;19921;-69
2022/08/04 14:07:25;;;;;;;;;;;;;;;;;;5017461;28;19916;-66
2022/08/04 14:09:54;;;;;;;;;;;;;;;;;;5012129;28;19928;-67
2022/08/04 14:12:22;;;;;;;;;;;;;;;;;;5013458;28;19917;-66
2022/08/04 14:14:48;;;;;;;;;;;;;;;;;;4994326;28;20082;-66
2022/08/04 14:20:08;;;;;;;;;;;;;;;;;;5014280;28;19970;-66
2022/08/04 14:22:39;;;;;;;;;;;;;;;;;;5013792;28;19925;-67
2022/08/04 14:34:54;;;;;;;;;;;;;;;;;;5012863;28;19928;-67
2022/08/04 14:37:25;;;;;;;;;;;;;;;;;;5013594;28;19917;-66
2022/08/04 14:39:53;;;;;;;;;;;;;;;;;;4996533;28;20375;-68
2022/08/04 14:48:24;;;;;;;;;;;;;;;;;;5015107;28;19924;-67
2022/08/04 14:50:49;;;;;;;;;;;;;;;;;;5014148;28;19928;-66
2022/08/04 14:53:17;;;;;;;;;;;;;;;;;;5012991;28;19921;-67
2022/08/04 15:01:52;;;;;;;;;;;;;;;;;;5012590;28;19987;-65
2022/08/04 15:04:17;;;;;;;;;;;;;;;;;;5017394;28;19917;-65
2022/08/04 15:06:43;;;;;;;;;;;;;;;;;;4997873;28;19925;-66
2022/08/04 15:09:08;;;;;;;;;;;;;;;;;;5013843;28;19917;-68
2022/08/04 15:11:52;;;;;;;;;;;;;;;;;;5017751;28;19964;-67
2022/08/04 15:14:20;;;;;;;;;;;;;;;;;;4998200;28;19967;-66
2022/08/04 15:16:45;;;;;;;;;;;;;;;;;;5015097;28;20348;-65
2022/08/04 15:19:13;;;;;;;;;;;;;;;;;;5020878;28;19932;-64
2022/08/04 15:28:15;;;;;;;;;;;;;;;;;;5017048;28;19923;-65
2022/08/04 15:30:41;;;;;;;;;;;;;;;;;;5019006;28;21390;-65
2022/08/04 15:33:11;;;;;;;;;;;;;;;;;;5016498;28;19921;-65
2022/08/04 15:35:36;;;;;;;;;;;;;;;;;;5003661;28;19972;-65
2022/08/04 15:38:03;;;;;;;;;;;;;;;;;;5015195;28;20089;-66
2022/08/04 15:40:28;;;;;;;;;;;;;;;;;;5014571;28;19925;-64
2022/08/04 15:46:15;;;;;;;;;;;;;;;;;;5016442;28;19999;-65
2022/08/04 15:48:40;;;;;;;;;;;;;;;;;;5016258;28;19917;-65
2022/08/04 15:51:07;;;;;;;;;;;;;;;;;;5016959;28;20015;-66
2022/08/04 15:53:32;;;;;;;;;;;;;;;;;;5016549;28;19921;-65
2022/08/04 15:56:03;;;;;;;;;;;;;;;;;;5015504;28;19921;-61
2022/08/04 15:58:28;;;;;;;;;;;;;;;;;;4999918;28;19979;-63
2022/08/04 16:00:56;;;;;;;;;;;;;;;;;;5017402;28;20618;-66
2022/08/04 16:03:22;;;;;;;;;;;;;;;;;;5017627;28;20498;-65
2022/08/04 16:05:47;;;;;;;;;;;;;;;;;;5014521;28;20012;-63
2022/08/04 16:08:16;;;;;;;;;;;;;;;;;;5015664;28;19921;-64
2022/08/04 16:10:43;;;;;;;;;;;;;;;;;;5013739;28;19921;-65
2022/08/04 16:13:14;;;;;;;;;;;;;;;;;;5002907;28;19932;-66
2022/08/04 16:15:39;;;;;;;;;;;;;;;;;;5015096;28;20495;-64
2022/08/04 16:18:04;;;;;;;;;;;;;;;;;;5001528;28;19945;-65
2022/08/04 16:24:01;;;;;;;;;;;;;;;;;;5016666;28;19951;-64
2022/08/04 16:29:43;;;;;;;;;;;;;;;;;;5016276;28;20341;-64
2022/08/04 16:32:12;;;;;;;;;;;;;;;;;;5011866;28;20000;-65
2022/08/04 16:34:37;;;;;;;;;;;;;;;;;;5015158;28;19925;-64
2022/08/04 16:37:03;;;;;;;;;;;;;;;;;;5015584;28;19928;-65
2022/08/04 16:39:28;;;;;;;;;;;;;;;;;;5004806;28;19943;-64
2022/08/04 16:41:56;;;;;;;;;;;;;;;;;;4999537;28;19958;-65
2022/08/04 16:44:30;;;;;;;;;;;;;;;;;;5015871;28;19917;-64
2022/08/04 16:50:15;;;;;;;;;;;;;;;;;;5014288;28;19986;-64
2022/08/04 16:55:28;;;;;;;;;;;;;;;;;;5016745;28;19998;-63
2022/08/04 16:58:05;;;;;;;;;;;;;;;;;;5014041;28;20008;-63
2022/08/04 17:00:31;;;;;;;;;;;;;;;;;;5031240;28;19924;-63
2022/08/04 17:02:56;;;;;;;;;;;;;;;;;;5015805;28;19959;-63
2022/08/04 17:05:21;;;;;;;;;;;;;;;;;;5012055;28;20358;-64
2022/08/04 17:07:48;;;;;;;;;;;;;;;;;;5013674;28;19921;-64
2022/08/04 17:10:16;;;;;;;;;;;;;;;;;;5001595;28;19920;-63
2022/08/04 17:12:41;;;;;;;;;;;;;;;;;;5014400;28;19932;-63
2022/08/04 17:15:06;;;;;;;;;;;;;;;;;;5016933;28;20261;-64
2022/08/04 17:17:34;;;;;;;;;;;;;;;;;;5011238;28;19932;-63
2022/08/04 17:19:59;;;;;;;;;;;;;;;;;;5018430;28;19924;-64
2022/08/04 17:22:27;;;;;;;;;;;;;;;;;;5013969;28;19921;-62
2022/08/04 17:25:05;;;;;;;;;;;;;;;;;;5013016;28;19928;-62
2022/08/04 17:27:32;;;;;;;;;;;;;;;;;;4998194;28;20495;-63
2022/08/04 17:30:00;;;;;;;;;;;;;;;;;;4994906;28;20660;-64
2022/08/04 17:32:28;;;;;;;;;;;;;;;;;;4996775;28;20012;-63
2022/08/04 17:34:53;;;;;;;;;;;;;;;;;;5013154;28;19920;-63
2022/08/04 17:40:34;;;;;;;;;;;;;;;;;;5012802;28;19928;-63
2022/08/04 17:43:05;;;;;;;;;;;;;;;;;;5017122;28;19970;-64
2022/08/04 17:45:31;;;;;;;;;;;;;;;;;;5018554;28;19927;-63
2022/08/04 17:47:57;;;;;;;;;;;;;;;;;;5015334;28;20186;-63
2022/08/04 17:50:24;;;;;;;;;;;;;;;;;;5015155;28;20304;-63
2022/08/04 17:52:50;;;;;;;;;;;;;;;;;;5011259;28;20379;-64
2022/08/04 17:55:33;;;;;;;;;;;;;;;;;;5012315;28;19924;-64
2022/08/04 17:57:59;;;;;;;;;;;;;;;;;;5013370;28;19921;-64
2022/08/04 18:00:52;;;;;;;;;;;;;;;;;;;;;
2022/08/04 18:03:17;;;;;;;;;;;;;;;;;;5014199;28;20277;-63
2022/08/04 18:05:44;;;;;;;;;;;;;;;;;;5012282;28;19967;-63
2022/08/04 18:08:13;;;;;;;;;;;;;;;;;;4998494;28;19974;-64
2022/08/04 18:10:41;;;;;;;;;;;;;;;;;;5000269;28;20324;-64
2022/08/04 18:13:06;;;;;;;;;;;;;;;;;;5016720;28;20574;-64
2022/08/04 18:15:31;;;;;;;;;;;;;;;;;;5014405;28;20544;-63
2022/08/04 18:17:57;;;;;;;;;;;;;;;;;;5014162;28;19924;-62
2022/08/04 18:20:22;;;;;;;;;;;;;;;;;;5017321;28;19948;-63
2022/08/04 18:26:20;;;;;;;;;;;;;;;;;;5015384;28;19928;-61
2022/08/04 18:28:47;;;;;;;;;;;;;;;;;;5002270;28;19925;-63
2022/08/04 18:31:12;;;;;;;;;;;;;;;;;;5014261;28;19916;-62
2022/08/04 18:33:38;;;;;;;;;;;;;;;;;;4996183;28;22260;-62
2022/08/04 18:36:05;;;;;;;;;;;;;;;;;;5015356;28;20515;-61
2022/08/04 18:41:47;;;;;;;;;;;;;;;;;;5016122;28;19924;-62
2022/08/04 18:44:12;;;;;;;;;;;;;;;;;;5017851;28;20334;-63
2022/08/04 18:46:38;;;;;;;;;;;;;;;;;;5018983;28;20128;-63
2022/08/04 18:49:06;;;;;;;;;;;;;;;;;;5016853;28;20387;-63
2022/08/04 18:51:31;;;;;;;;;;;;;;;;;;5018356;28;19920;-63
2022/08/04 18:53:57;;;;;;;;;;;;;;;;;;5019293;28;19967;-63
2022/08/04 18:56:22;;;;;;;;;;;;;;;;;;5017512;28;19936;-62
2022/08/04 18:58:48;;;;;;;;;;;;;;;;;;5021488;28;20040;-63
2022/08/04 19:01:15;;;;;;;;;;;;;;;;;;5017186;28;19928;-62
2022/08/04 19:03:43;;;;;;;;;;;;;;;;;;4999402;28;19921;-62
2022/08/04 19:06:09;;;;;;;;;;;;;;;;;;5015179;28;21186;-62
2022/08/04 19:08:35;;;;;;;;;;;;;;;;;;5018587;28;19917;-62
2022/08/04 19:11:02;;;;;;;;;;;;;;;;;;5012997;28;19920;-62
2022/08/04 19:13:30;;;;;;;;;;;;;;;;;;5015306;28;20391;-63
2022/08/04 19:15:58;;;;;;;;;;;;;;;;;;5019356;28;19940;-61
2022/08/04 19:18:25;;;;;;;;;;;;;;;;;;5019639;28;19975;-62
2022/08/04 19:20:53;;;;;;;;;;;;;;;;;;5018275;28;19991;-62
2022/08/04 19:23:18;;;;;;;;;;;;;;;;;;5018025;28;19921;-62
2022/08/04 19:29:02;;;;;;;;;;;;;;;;;;5020158;28;19967;-62
2022/08/04 19:31:30;;;;;;;;;;;;;;;;;;5018799;28;19928;-62
2022/08/04 19:33:57;;;;;;;;;;;;;;;;;;5017425;28;19917;-62
2022/08/04 19:36:23;;;;;;;;;;;;;;;;;;5020207;28;20440;-62
2022/08/04 19:38:53;;;;;;;;;;;;;;;;;;5021432;28;20377;-62
2022/08/04 19:41:22;;;;;;;;;;;;;;;;;;5018088;28;20909;-62
2022/08/04 19:43:50;;;;;;;;;;;;;;;;;;5016828;28;19992;-62
2022/08/04 19:52:50;;;;;;;;;;;;;;;;;;5018740;28;19998;-62
2022/08/04 19:55:15;;;;;;;;;;;;;;;;;;4999763;28;19921;-62
2022/08/04 19:57:43;;;;;;;;;;;;;;;;;;5019634;28;19921;-61
2022/08/04 20:00:08;;;;;;;;;;;;;;;;;;5004055;28;19921;-61
2022/08/04 20:02:34;;;;;;;;;;;;;;;;;;5016997;28;20040;-61
2022/08/04 20:05:14;;;;;;;;;;;;;;;;;;5002192;28;19921;-61
2022/08/04 20:07:39;;;;;;;;;;;;;;;;;;5017533;28;20475;-62
2022/08/04 20:10:07;;;;;;;;;;;;;;;;;;5015519;28;19929;-62
2022/08/04 20:12:34;;;;;;;;;;;;;;;;;;5001461;28;19921;-62
2022/08/04 20:15:02;;;;;;;;;;;;;;;;;;5019597;28;19920;-63
2022/08/04 20:17:29;;;;;;;;;;;;;;;;;;5016726;28;19924;-62
2022/08/04 20:19:55;;;;;;;;;;;;;;;;;;5018082;28;20302;-62
2022/08/04 20:22:20;;;;;;;;;;;;;;;;;;5017305;28;20071;-61
2022/08/04 20:24:48;;;;;;;;;;;;;;;;;;5001127;28;20981;-62
2022/08/04 20:27:18;;;;;;;;;;;;;;;;;;5019053;28;19921;-62
2022/08/04 20:29:44;;;;;;;;;;;;;;;;;;5021169;28;19948;-61
2022/08/04 20:32:10;;;;;;;;;;;;;;;;;;5019155;28;19931;-62
2022/08/04 20:34:35;;;;;;;;;;;;;;;;;;5000017;28;20469;-63
2022/08/04 20:37:00;;;;;;;;;;;;;;;;;;5016917;28;19995;-61
2022/08/04 20:39:25;;;;;;;;;;;;;;;;;;5001581;28;19917;-62
2022/08/04 20:42:01;;;;;;;;;;;;;;;;;;5015889;28;19921;-62
2022/08/04 20:44:26;;;;;;;;;;;;;;;;;;5018283;28;20517;-62
2022/08/04 20:46:51;;;;;;;;;;;;;;;;;;5017285;28;19921;-62
2022/08/04 20:49:17;;;;;;;;;;;;;;;;;;5016962;28;20007;-62
2022/08/04 20:51:42;;;;;;;;;;;;;;;;;;5018154;28;21908;-62
2022/08/04 20:54:07;;;;;;;;;;;;;;;;;;5016570;28;19964;-62
2022/08/04 20:56:33;;;;;;;;;;;;;;;;;;5019122;28;19944;-62